sensor_id;sensor_type;location;lat;lon;timestamp;P1;durP1;ratioP1;P2;durP2;ratioP2
25127;SDS011;13107;51.304;6.866;2022-09-09T00:01:28;3.53;;;0.62;;
25127;SDS011;13107;51.304;6.866;2022-09-09T00:05:48;2.45;;;0.55;;
25127;SDS011;13107;51.304;6.866;2022-09-09T00:19:02;3.33;;;0.70;;
25127;SDS011;13107;51.304;6.866;2022-09-09T00:23:31;1.60;;;0.50;;
25127;SDS011;13107;51.304;6.866;2022-09-09T00:27:40;2.15;;;0.70;;
25127;SDS011;13107;51.304;6.866;2022-09-09T00:31:46;3.90;;;0.70;;
25127;SDS011;13107;51.304;6.866;2022-09-09T00:35:52;2.67;;;0.55;;
25127;SDS011;13107;51.304;6.866;2022-09-09T00:39:58;2.00;;;0.57;;
25127;SDS011;13107;51.304;6.866;2022-09-09T00:48:31;2.90;;;0.70;;
25127;SDS011;13107;51.304;6.866;2022-09-09T00:57:23;2.80;;;0.80;;
25127;SDS011;13107;51.304;6.866;2022-09-09T01:01:30;3.20;;;0.75;;
25127;SDS011;13107;51.304;6.866;2022-09-09T01:09:56;3.17;;;0.98;;
25127;SDS011;13107;51.304;6.866;2022-09-09T01:18:41;3.10;;;0.73;;
25127;SDS011;13107;51.304;6.866;2022-09-09T01:22:55;2.05;;;1.02;;
25127;SDS011;13107;51.304;6.866;2022-09-09T01:26:58;2.92;;;1.20;;
25127;SDS011;13107;51.304;6.866;2022-09-09T01:31:04;4.12;;;1.15;;
25127;SDS011;13107;51.304;6.866;2022-09-09T01:35:09;4.70;;;1.10;;
25127;SDS011;13107;51.304;6.866;2022-09-09T01:39:18;5.12;;;1.00;;
25127;SDS011;13107;51.304;6.866;2022-09-09T01:43:21;5.82;;;1.40;;
25127;SDS011;13107;51.304;6.866;2022-09-09T01:47:24;3.37;;;0.95;;
25127;SDS011;13107;51.304;6.866;2022-09-09T01:51:26;2.28;;;0.82;;
25127;SDS011;13107;51.304;6.866;2022-09-09T02:03:42;2.50;;;1.12;;
25127;SDS011;13107;51.304;6.866;2022-09-09T02:07:49;3.55;;;1.30;;
25127;SDS011;13107;51.304;6.866;2022-09-09T02:11:59;3.95;;;1.20;;
25127;SDS011;13107;51.304;6.866;2022-09-09T02:16:24;5.43;;;1.30;;
25127;SDS011;13107;51.304;6.866;2022-09-09T02:20:30;8.50;;;1.60;;
25127;SDS011;13107;51.304;6.866;2022-09-09T02:24:36;4.07;;;1.45;;
25127;SDS011;13107;51.304;6.866;2022-09-09T02:28:41;6.53;;;1.37;;
25127;SDS011;13107;51.304;6.866;2022-09-09T02:32:43;5.15;;;1.52;;
25127;SDS011;13107;51.304;6.866;2022-09-09T02:36:46;6.35;;;1.42;;
25127;SDS011;13107;51.304;6.866;2022-09-09T02:40:50;4.65;;;1.30;;
25127;SDS011;13107;51.304;6.866;2022-09-09T02:44:52;6.75;;;1.25;;
25127;SDS011;13107;51.304;6.866;2022-09-09T02:49:01;4.35;;;1.37;;
25127;SDS011;13107;51.304;6.866;2022-09-09T02:53:18;6.40;;;1.23;;
25127;SDS011;13107;51.304;6.866;2022-09-09T02:57:28;6.22;;;2.00;;
25127;SDS011;13107;51.304;6.866;2022-09-09T03:01:31;3.72;;;1.37;;
25127;SDS011;13107;51.304;6.866;2022-09-09T03:05:33;5.05;;;1.42;;
25127;SDS011;13107;51.304;6.866;2022-09-09T03:09:35;6.57;;;1.48;;
25127;SDS011;13107;51.304;6.866;2022-09-09T03:13:37;5.22;;;1.50;;
25127;SDS011;13107;51.304;6.866;2022-09-09T03:17:39;7.22;;;1.50;;
25127;SDS011;13107;51.304;6.866;2022-09-09T03:21:41;9.80;;;1.80;;
25127;SDS011;13107;51.304;6.866;2022-09-09T03:25:46;4.30;;;1.17;;
25127;SDS011;13107;51.304;6.866;2022-09-09T03:30:04;8.05;;;1.30;;
25127;SDS011;13107;51.304;6.866;2022-09-09T03:34:06;2.87;;;0.90;;
25127;SDS011;13107;51.304;6.866;2022-09-09T03:38:08;3.37;;;0.98;;
25127;SDS011;13107;51.304;6.866;2022-09-09T03:42:13;3.72;;;1.17;;
25127;SDS011;13107;51.304;6.866;2022-09-09T03:46:20;4.03;;;1.23;;
25127;SDS011;13107;51.304;6.866;2022-09-09T03:50:23;5.68;;;1.12;;
25127;SDS011;13107;51.304;6.866;2022-09-09T03:54:25;2.42;;;0.85;;
25127;SDS011;13107;51.304;6.866;2022-09-09T03:58:27;5.37;;;1.10;;
25127;SDS011;13107;51.304;6.866;2022-09-09T04:02:29;6.03;;;1.37;;
25127;SDS011;13107;51.304;6.866;2022-09-09T04:06:30;6.00;;;1.05;;
25127;SDS011;13107;51.304;6.866;2022-09-09T04:10:32;4.78;;;1.30;;
25127;SDS011;13107;51.304;6.866;2022-09-09T04:14:34;4.07;;;1.15;;
25127;SDS011;13107;51.304;6.866;2022-09-09T04:18:36;5.32;;;1.42;;
25127;SDS011;13107;51.304;6.866;2022-09-09T04:22:38;7.53;;;1.67;;
25127;SDS011;13107;51.304;6.866;2022-09-09T04:26:40;4.57;;;1.65;;
25127;SDS011;13107;51.304;6.866;2022-09-09T04:30:43;5.87;;;1.40;;
25127;SDS011;13107;51.304;6.866;2022-09-09T04:34:45;7.22;;;1.50;;
25127;SDS011;13107;51.304;6.866;2022-09-09T04:38:48;5.70;;;1.30;;
25127;SDS011;13107;51.304;6.866;2022-09-09T04:42:50;4.87;;;1.30;;
25127;SDS011;13107;51.304;6.866;2022-09-09T04:46:52;6.40;;;1.33;;
25127;SDS011;13107;51.304;6.866;2022-09-09T04:50:54;8.60;;;1.98;;
25127;SDS011;13107;51.304;6.866;2022-09-09T04:55:01;13.25;;;5.45;;
25127;SDS011;13107;51.304;6.866;2022-09-09T04:59:03;5.72;;;2.90;;
25127;SDS011;13107;51.304;6.866;2022-09-09T05:03:05;8.93;;;1.75;;
25127;SDS011;13107;51.304;6.866;2022-09-09T05:07:07;6.95;;;1.87;;
25127;SDS011;13107;51.304;6.866;2022-09-09T05:15:25;7.72;;;3.12;;
25127;SDS011;13107;51.304;6.866;2022-09-09T05:19:26;7.78;;;2.22;;
25127;SDS011;13107;51.304;6.866;2022-09-09T05:23:28;4.20;;;1.87;;
25127;SDS011;13107;51.304;6.866;2022-09-09T05:27:30;7.75;;;1.90;;
25127;SDS011;13107;51.304;6.866;2022-09-09T05:31:32;5.60;;;1.52;;
25127;SDS011;13107;51.304;6.866;2022-09-09T05:35:34;6.55;;;2.03;;
25127;SDS011;13107;51.304;6.866;2022-09-09T05:39:36;9.55;;;3.10;;
25127;SDS011;13107;51.304;6.866;2022-09-09T05:43:38;6.85;;;2.10;;
25127;SDS011;13107;51.304;6.866;2022-09-09T05:47:40;13.15;;;7.12;;
25127;SDS011;13107;51.304;6.866;2022-09-09T05:51:42;10.90;;;3.58;;
25127;SDS011;13107;51.304;6.866;2022-09-09T05:55:44;9.73;;;2.00;;
25127;SDS011;13107;51.304;6.866;2022-09-09T05:59:46;8.02;;;1.90;;
25127;SDS011;13107;51.304;6.866;2022-09-09T06:03:48;6.65;;;1.77;;
25127;SDS011;13107;51.304;6.866;2022-09-09T06:07:52;6.55;;;1.80;;
25127;SDS011;13107;51.304;6.866;2022-09-09T06:11:54;5.97;;;1.90;;
25127;SDS011;13107;51.304;6.866;2022-09-09T06:15:55;6.62;;;1.70;;
25127;SDS011;13107;51.304;6.866;2022-09-09T06:19:57;8.80;;;1.85;;
25127;SDS011;13107;51.304;6.866;2022-09-09T06:24:00;7.25;;;1.58;;
25127;SDS011;13107;51.304;6.866;2022-09-09T06:28:02;6.18;;;1.65;;
25127;SDS011;13107;51.304;6.866;2022-09-09T06:32:04;5.30;;;1.90;;
25127;SDS011;13107;51.304;6.866;2022-09-09T06:36:16;4.93;;;1.92;;
25127;SDS011;13107;51.304;6.866;2022-09-09T06:40:21;7.20;;;2.20;;
25127;SDS011;13107;51.304;6.866;2022-09-09T06:44:23;5.55;;;1.50;;
25127;SDS011;13107;51.304;6.866;2022-09-09T06:48:30;5.55;;;1.50;;
25127;SDS011;13107;51.304;6.866;2022-09-09T06:52:32;5.93;;;1.30;;
25127;SDS011;13107;51.304;6.866;2022-09-09T06:56:35;6.85;;;1.55;;
25127;SDS011;13107;51.304;6.866;2022-09-09T07:00:38;6.15;;;1.62;;
25127;SDS011;13107;51.304;6.866;2022-09-09T07:04:40;6.47;;;1.37;;
25127;SDS011;13107;51.304;6.866;2022-09-09T07:08:42;6.80;;;1.20;;
25127;SDS011;13107;51.304;6.866;2022-09-09T07:12:56;6.18;;;1.10;;
25127;SDS011;13107;51.304;6.866;2022-09-09T07:16:58;9.27;;;1.48;;
25127;SDS011;13107;51.304;6.866;2022-09-09T07:21:00;4.28;;;1.08;;
25127;SDS011;13107;51.304;6.866;2022-09-09T07:25:03;8.38;;;1.40;;
25127;SDS011;13107;51.304;6.866;2022-09-09T07:29:05;5.28;;;1.02;;
25127;SDS011;13107;51.304;6.866;2022-09-09T07:33:08;10.50;;;1.25;;
25127;SDS011;13107;51.304;6.866;2022-09-09T07:37:10;8.35;;;1.10;;
25127;SDS011;13107;51.304;6.866;2022-09-09T07:41:15;7.60;;;0.98;;
25127;SDS011;13107;51.304;6.866;2022-09-09T07:45:28;3.10;;;0.82;;
25127;SDS011;13107;51.304;6.866;2022-09-09T07:49:31;3.83;;;0.98;;
25127;SDS011;13107;51.304;6.866;2022-09-09T07:53:33;5.05;;;0.93;;
25127;SDS011;13107;51.304;6.866;2022-09-09T07:57:37;3.58;;;0.90;;
25127;SDS011;13107;51.304;6.866;2022-09-09T08:01:40;6.47;;;1.40;;
25127;SDS011;13107;51.304;6.866;2022-09-09T08:05:49;5.40;;;1.35;;
25127;SDS011;13107;51.304;6.866;2022-09-09T08:09:51;4.82;;;1.25;;
25127;SDS011;13107;51.304;6.866;2022-09-09T08:13:53;5.87;;;0.90;;
25127;SDS011;13107;51.304;6.866;2022-09-09T08:18:01;7.85;;;1.35;;
25127;SDS011;13107;51.304;6.866;2022-09-09T08:22:05;4.30;;;0.95;;
25127;SDS011;13107;51.304;6.866;2022-09-09T08:26:12;6.85;;;1.40;;
25127;SDS011;13107;51.304;6.866;2022-09-09T08:30:18;4.03;;;0.98;;
25127;SDS011;13107;51.304;6.866;2022-09-09T08:34:20;7.00;;;1.15;;
25127;SDS011;13107;51.304;6.866;2022-09-09T08:38:22;4.37;;;1.10;;
25127;SDS011;13107;51.304;6.866;2022-09-09T08:42:27;4.93;;;1.17;;
25127;SDS011;13107;51.304;6.866;2022-09-09T08:50:59;7.32;;;1.05;;
25127;SDS011;13107;51.304;6.866;2022-09-09T08:55:09;6.62;;;0.98;;
25127;SDS011;13107;51.304;6.866;2022-09-09T08:59:25;4.53;;;1.17;;
25127;SDS011;13107;51.304;6.866;2022-09-09T09:03:33;4.05;;;1.00;;
25127;SDS011;13107;51.304;6.866;2022-09-09T09:07:57;5.95;;;1.27;;
25127;SDS011;13107;51.304;6.866;2022-09-09T09:12:19;4.28;;;1.27;;
25127;SDS011;13107;51.304;6.866;2022-09-09T09:20:55;4.75;;;0.80;;
25127;SDS011;13107;51.304;6.866;2022-09-09T09:25:11;5.12;;;1.15;;
25127;SDS011;13107;51.304;6.866;2022-09-09T09:29:19;6.47;;;0.80;;
25127;SDS011;13107;51.304;6.866;2022-09-09T09:33:31;5.85;;;0.90;;
25127;SDS011;13107;51.304;6.866;2022-09-09T09:37:41;4.60;;;1.00;;
25127;SDS011;13107;51.304;6.866;2022-09-09T09:42:11;12.80;;;1.05;;
25127;SDS011;13107;51.304;6.866;2022-09-09T09:46:21;4.22;;;1.00;;
25127;SDS011;13107;51.304;6.866;2022-09-09T09:50:25;4.93;;;1.15;;
25127;SDS011;13107;51.304;6.866;2022-09-09T09:54:28;4.80;;;1.08;;
25127;SDS011;13107;51.304;6.866;2022-09-09T09:58:31;3.30;;;1.10;;
25127;SDS011;13107;51.304;6.866;2022-09-09T10:02:41;4.57;;;0.68;;
25127;SDS011;13107;51.304;6.866;2022-09-09T10:06:44;4.53;;;0.62;;
25127;SDS011;13107;51.304;6.866;2022-09-09T10:11:05;4.10;;;0.93;;
25127;SDS011;13107;51.304;6.866;2022-09-09T10:19:32;3.47;;;0.77;;
25127;SDS011;13107;51.304;6.866;2022-09-09T10:23:44;3.92;;;0.85;;
25127;SDS011;13107;51.304;6.866;2022-09-09T10:36:42;2.47;;;0.50;;
25127;SDS011;13107;51.304;6.866;2022-09-09T10:45:02;2.15;;;0.70;;
25127;SDS011;13107;51.304;6.866;2022-09-09T10:50:40;4.78;;;0.77;;
25127;SDS011;13107;51.304;6.866;2022-09-09T10:54:34;3.92;;;0.70;;
25127;SDS011;13107;51.304;6.866;2022-09-09T11:03:06;2.45;;;0.73;;
25127;SDS011;13107;51.304;6.866;2022-09-09T11:07:15;3.47;;;0.60;;
25127;SDS011;13107;51.304;6.866;2022-09-09T11:11:34;5.72;;;0.75;;
25127;SDS011;13107;51.304;6.866;2022-09-09T11:15:44;3.28;;;0.62;;
25127;SDS011;13107;51.304;6.866;2022-09-09T11:19:51;5.53;;;0.60;;
25127;SDS011;13107;51.304;6.866;2022-09-09T11:23:54;3.20;;;0.70;;
25127;SDS011;13107;51.304;6.866;2022-09-09T11:28:08;3.40;;;0.50;;
25127;SDS011;13107;51.304;6.866;2022-09-09T11:36:53;2.30;;;0.60;;
25127;SDS011;13107;51.304;6.866;2022-09-09T11:41:13;3.80;;;0.95;;
25127;SDS011;13107;51.304;6.866;2022-09-09T11:45:23;6.40;;;0.82;;
25127;SDS011;13107;51.304;6.866;2022-09-09T11:49:29;2.12;;;0.55;;
25127;SDS011;13107;51.304;6.866;2022-09-09T11:53:51;2.10;;;0.55;;
25127;SDS011;13107;51.304;6.866;2022-09-09T12:06:19;4.55;;;0.82;;
25127;SDS011;13107;51.304;6.866;2022-09-09T12:10:35;2.53;;;0.60;;
25127;SDS011;13107;51.304;6.866;2022-09-09T12:14:43;2.65;;;0.60;;
25127;SDS011;13107;51.304;6.866;2022-09-09T12:19:03;8.10;;;1.10;;
25127;SDS011;13107;51.304;6.866;2022-09-09T12:27:23;2.65;;;0.77;;
25127;SDS011;13107;51.304;6.866;2022-09-09T12:31:32;4.87;;;0.80;;
25127;SDS011;13107;51.304;6.866;2022-09-09T12:35:55;2.28;;;0.52;;
25127;SDS011;13107;51.304;6.866;2022-09-09T12:40:00;5.68;;;0.70;;
25127;SDS011;13107;51.304;6.866;2022-09-09T12:44:04;4.50;;;0.95;;
25127;SDS011;13107;51.304;6.866;2022-09-09T12:48:09;3.62;;;0.68;;
25127;SDS011;13107;51.304;6.866;2022-09-09T12:52:19;5.00;;;0.73;;
25127;SDS011;13107;51.304;6.866;2022-09-09T12:56:28;2.87;;;0.40;;
25127;SDS011;13107;51.304;6.866;2022-09-09T13:00:33;2.40;;;0.77;;
25127;SDS011;13107;51.304;6.866;2022-09-09T13:04:35;1.83;;;0.60;;
25127;SDS011;13107;51.304;6.866;2022-09-09T13:08:36;2.85;;;0.60;;
25127;SDS011;13107;51.304;6.866;2022-09-09T13:12:39;3.28;;;0.50;;
25127;SDS011;13107;51.304;6.866;2022-09-09T13:16:43;3.47;;;0.73;;
25127;SDS011;13107;51.304;6.866;2022-09-09T13:20:55;2.15;;;0.60;;
25127;SDS011;13107;51.304;6.866;2022-09-09T13:25:00;5.40;;;0.82;;
25127;SDS011;13107;51.304;6.866;2022-09-09T13:29:17;3.55;;;0.75;;
25127;SDS011;13107;51.304;6.866;2022-09-09T13:33:22;3.70;;;0.50;;
25127;SDS011;13107;51.304;6.866;2022-09-09T13:37:34;3.65;;;0.75;;
25127;SDS011;13107;51.304;6.866;2022-09-09T13:41:44;2.15;;;0.50;;
25127;SDS011;13107;51.304;6.866;2022-09-09T13:46:00;3.00;;;1.10;;
25127;SDS011;13107;51.304;6.866;2022-09-09T13:50:19;3.92;;;0.68;;
25127;SDS011;13107;51.304;6.866;2022-09-09T13:54:24;2.70;;;0.60;;
25127;SDS011;13107;51.304;6.866;2022-09-09T13:58:26;6.30;;;1.05;;
25127;SDS011;13107;51.304;6.866;2022-09-09T14:02:27;3.65;;;0.80;;
25127;SDS011;13107;51.304;6.866;2022-09-09T14:06:29;2.30;;;0.60;;
25127;SDS011;13107;51.304;6.866;2022-09-09T14:10:31;2.53;;;0.55;;
25127;SDS011;13107;51.304;6.866;2022-09-09T14:14:33;2.22;;;0.70;;
25127;SDS011;13107;51.304;6.866;2022-09-09T14:18:34;4.05;;;0.60;;
25127;SDS011;13107;51.304;6.866;2022-09-09T14:22:37;3.40;;;0.68;;
25127;SDS011;13107;51.304;6.866;2022-09-09T14:26:40;2.85;;;0.65;;
25127;SDS011;13107;51.304;6.866;2022-09-09T14:30:42;3.75;;;0.57;;
25127;SDS011;13107;51.304;6.866;2022-09-09T14:34:45;1.92;;;0.45;;
25127;SDS011;13107;51.304;6.866;2022-09-09T14:38:47;2.53;;;0.70;;
25127;SDS011;13107;51.304;6.866;2022-09-09T14:42:49;1.65;;;0.30;;
25127;SDS011;13107;51.304;6.866;2022-09-09T14:46:50;1.02;;;0.15;;
25127;SDS011;13107;51.304;6.866;2022-09-09T14:50:52;0.52;;;0.13;;
25127;SDS011;13107;51.304;6.866;2022-09-09T14:54:54;0.57;;;0.10;;
25127;SDS011;13107;51.304;6.866;2022-09-09T14:58:56;2.87;;;0.20;;
25127;SDS011;13107;51.304;6.866;2022-09-09T15:02:58;1.02;;;0.10;;
25127;SDS011;13107;51.304;6.866;2022-09-09T15:07:00;1.70;;;0.45;;
25127;SDS011;13107;51.304;6.866;2022-09-09T15:11:03;4.35;;;0.50;;
25127;SDS011;13107;51.304;6.866;2022-09-09T15:15:06;2.15;;;0.35;;
25127;SDS011;13107;51.304;6.866;2022-09-09T15:19:08;1.70;;;0.28;;
25127;SDS011;13107;51.304;6.866;2022-09-09T15:23:10;1.20;;;0.30;;
25127;SDS011;13107;51.304;6.866;2022-09-09T15:27:12;3.55;;;0.43;;
25127;SDS011;13107;51.304;6.866;2022-09-09T15:31:19;1.95;;;0.70;;
25127;SDS011;13107;51.304;6.866;2022-09-09T15:35:22;3.62;;;0.60;;
25127;SDS011;13107;51.304;6.866;2022-09-09T15:39:24;0.82;;;0.40;;
25127;SDS011;13107;51.304;6.866;2022-09-09T15:43:25;1.73;;;0.35;;
25127;SDS011;13107;51.304;6.866;2022-09-09T15:47:27;1.23;;;0.40;;
25127;SDS011;13107;51.304;6.866;2022-09-09T15:51:29;1.52;;;0.50;;
25127;SDS011;13107;51.304;6.866;2022-09-09T15:55:42;3.05;;;0.70;;
25127;SDS011;13107;51.304;6.866;2022-09-09T15:59:46;3.00;;;0.90;;
25127;SDS011;13107;51.304;6.866;2022-09-09T16:03:49;3.25;;;0.62;;
25127;SDS011;13107;51.304;6.866;2022-09-09T16:07:54;2.95;;;0.60;;
25127;SDS011;13107;51.304;6.866;2022-09-09T16:11:56;2.95;;;0.60;;
25127;SDS011;13107;51.304;6.866;2022-09-09T16:16:00;2.70;;;0.62;;
25127;SDS011;13107;51.304;6.866;2022-09-09T16:20:03;3.58;;;0.90;;
25127;SDS011;13107;51.304;6.866;2022-09-09T16:24:08;3.35;;;0.85;;
25127;SDS011;13107;51.304;6.866;2022-09-09T16:28:11;2.10;;;0.70;;
25127;SDS011;13107;51.304;6.866;2022-09-09T16:32:13;3.35;;;0.93;;
25127;SDS011;13107;51.304;6.866;2022-09-09T16:36:34;2.87;;;0.80;;
25127;SDS011;13107;51.304;6.866;2022-09-09T16:40:37;2.40;;;0.60;;
25127;SDS011;13107;51.304;6.866;2022-09-09T16:44:42;2.12;;;0.68;;
25127;SDS011;13107;51.304;6.866;2022-09-09T16:48:44;5.60;;;0.90;;
25127;SDS011;13107;51.304;6.866;2022-09-09T16:52:47;2.95;;;0.88;;
25127;SDS011;13107;51.304;6.866;2022-09-09T16:56:48;3.83;;;0.80;;
25127;SDS011;13107;51.304;6.866;2022-09-09T17:00:50;3.92;;;1.55;;
25127;SDS011;13107;51.304;6.866;2022-09-09T17:04:52;2.70;;;0.80;;
25127;SDS011;13107;51.304;6.866;2022-09-09T17:08:57;5.50;;;1.17;;
25127;SDS011;13107;51.304;6.866;2022-09-09T17:13:00;2.33;;;0.90;;
25127;SDS011;13107;51.304;6.866;2022-09-09T17:17:02;5.65;;;1.20;;
25127;SDS011;13107;51.304;6.866;2022-09-09T17:21:25;5.70;;;0.98;;
25127;SDS011;13107;51.304;6.866;2022-09-09T17:25:28;6.50;;;1.15;;
25127;SDS011;13107;51.304;6.866;2022-09-09T17:29:30;4.28;;;0.98;;
25127;SDS011;13107;51.304;6.866;2022-09-09T17:33:35;5.22;;;1.00;;
25127;SDS011;13107;51.304;6.866;2022-09-09T17:41:40;3.92;;;1.08;;
25127;SDS011;13107;51.304;6.866;2022-09-09T17:45:42;4.18;;;1.20;;
25127;SDS011;13107;51.304;6.866;2022-09-09T17:49:45;5.60;;;1.58;;
25127;SDS011;13107;51.304;6.866;2022-09-09T17:53:48;4.93;;;1.73;;
25127;SDS011;13107;51.304;6.866;2022-09-09T17:57:51;3.60;;;1.17;;
25127;SDS011;13107;51.304;6.866;2022-09-09T18:01:53;3.95;;;1.48;;
25127;SDS011;13107;51.304;6.866;2022-09-09T18:06:02;4.57;;;1.30;;
25127;SDS011;13107;51.304;6.866;2022-09-09T18:10:05;2.95;;;1.20;;
25127;SDS011;13107;51.304;6.866;2022-09-09T18:14:07;2.65;;;1.17;;
25127;SDS011;13107;51.304;6.866;2022-09-09T18:18:12;4.03;;;1.23;;
25127;SDS011;13107;51.304;6.866;2022-09-09T18:22:14;1.45;;;0.80;;
25127;SDS011;13107;51.304;6.866;2022-09-09T18:26:20;3.70;;;0.85;;
25127;SDS011;13107;51.304;6.866;2022-09-09T18:30:27;3.35;;;1.00;;
25127;SDS011;13107;51.304;6.866;2022-09-09T18:34:30;2.78;;;1.10;;
25127;SDS011;13107;51.304;6.866;2022-09-09T18:38:32;4.10;;;1.02;;
25127;SDS011;13107;51.304;6.866;2022-09-09T18:42:35;4.57;;;0.80;;
25127;SDS011;13107;51.304;6.866;2022-09-09T18:46:37;2.53;;;0.77;;
25127;SDS011;13107;51.304;6.866;2022-09-09T18:50:40;2.50;;;0.85;;
25127;SDS011;13107;51.304;6.866;2022-09-09T18:54:41;3.30;;;1.20;;
25127;SDS011;13107;51.304;6.866;2022-09-09T18:58:50;5.05;;;1.00;;
25127;SDS011;13107;51.304;6.866;2022-09-09T19:02:53;1.90;;;0.80;;
25127;SDS011;13107;51.304;6.866;2022-09-09T19:06:54;7.25;;;1.70;;
25127;SDS011;13107;51.304;6.866;2022-09-09T19:11:02;3.70;;;1.60;;
25127;SDS011;13107;51.304;6.866;2022-09-09T19:15:05;2.87;;;1.00;;
25127;SDS011;13107;51.304;6.866;2022-09-09T19:19:10;3.37;;;1.10;;
25127;SDS011;13107;51.304;6.866;2022-09-09T19:23:14;4.18;;;1.10;;
25127;SDS011;13107;51.304;6.866;2022-09-09T19:27:16;4.93;;;1.00;;
25127;SDS011;13107;51.304;6.866;2022-09-09T19:31:18;5.50;;;1.65;;
25127;SDS011;13107;51.304;6.866;2022-09-09T19:35:20;4.80;;;1.33;;
25127;SDS011;13107;51.304;6.866;2022-09-09T19:39:22;6.07;;;1.58;;
25127;SDS011;13107;51.304;6.866;2022-09-09T19:43:24;2.58;;;1.02;;
25127;SDS011;13107;51.304;6.866;2022-09-09T19:47:26;5.62;;;1.25;;
25127;SDS011;13107;51.304;6.866;2022-09-09T19:51:28;4.82;;;1.48;;
25127;SDS011;13107;51.304;6.866;2022-09-09T19:55:31;4.65;;;1.20;;
25127;SDS011;13107;51.304;6.866;2022-09-09T19:59:33;2.97;;;1.27;;
25127;SDS011;13107;51.304;6.866;2022-09-09T20:03:36;3.80;;;1.40;;
25127;SDS011;13107;51.304;6.866;2022-09-09T20:07:38;6.50;;;1.52;;
25127;SDS011;13107;51.304;6.866;2022-09-09T20:11:41;6.15;;;1.30;;
25127;SDS011;13107;51.304;6.866;2022-09-09T20:15:43;4.12;;;1.65;;
25127;SDS011;13107;51.304;6.866;2022-09-09T20:19:45;4.53;;;1.00;;
25127;SDS011;13107;51.304;6.866;2022-09-09T20:23:47;3.05;;;1.40;;
25127;SDS011;13107;51.304;6.866;2022-09-09T20:27:49;3.60;;;1.25;;
25127;SDS011;13107;51.304;6.866;2022-09-09T20:31:51;4.25;;;1.60;;
25127;SDS011;13107;51.304;6.866;2022-09-09T20:35:53;2.45;;;1.08;;
25127;SDS011;13107;51.304;6.866;2022-09-09T20:39:54;6.25;;;1.55;;
25127;SDS011;13107;51.304;6.866;2022-09-09T20:43:57;2.40;;;1.10;;
25127;SDS011;13107;51.304;6.866;2022-09-09T20:48:04;6.80;;;1.48;;
25127;SDS011;13107;51.304;6.866;2022-09-09T20:52:07;3.12;;;1.30;;
25127;SDS011;13107;51.304;6.866;2022-09-09T20:56:11;3.03;;;1.12;;
25127;SDS011;13107;51.304;6.866;2022-09-09T21:00:13;2.90;;;0.98;;
25127;SDS011;13107;51.304;6.866;2022-09-09T21:04:16;4.93;;;1.40;;
25127;SDS011;13107;51.304;6.866;2022-09-09T21:08:18;3.92;;;1.37;;
25127;SDS011;13107;51.304;6.866;2022-09-09T21:12:20;3.45;;;1.30;;
25127;SDS011;13107;51.304;6.866;2022-09-09T21:16:22;4.12;;;1.25;;
25127;SDS011;13107;51.304;6.866;2022-09-09T21:20:24;4.12;;;1.30;;
25127;SDS011;13107;51.304;6.866;2022-09-09T21:24:26;4.32;;;1.50;;
25127;SDS011;13107;51.304;6.866;2022-09-09T21:28:27;4.10;;;1.00;;
25127;SDS011;13107;51.304;6.866;2022-09-09T21:32:29;4.68;;;1.50;;
25127;SDS011;13107;51.304;6.866;2022-09-09T21:36:31;5.45;;;1.58;;
25127;SDS011;13107;51.304;6.866;2022-09-09T21:40:37;3.87;;;1.20;;
25127;SDS011;13107;51.304;6.866;2022-09-09T21:44:39;7.00;;;1.58;;
25127;SDS011;13107;51.304;6.866;2022-09-09T21:48:41;4.00;;;1.10;;
25127;SDS011;13107;51.304;6.866;2022-09-09T21:52:42;3.75;;;1.60;;
25127;SDS011;13107;51.304;6.866;2022-09-09T21:56:44;5.00;;;1.40;;
25127;SDS011;13107;51.304;6.866;2022-09-09T22:00:49;4.30;;;1.40;;
25127;SDS011;13107;51.304;6.866;2022-09-09T22:04:51;3.80;;;1.50;;
25127;SDS011;13107;51.304;6.866;2022-09-09T22:08:52;6.35;;;1.83;;
25127;SDS011;13107;51.304;6.866;2022-09-09T22:12:58;5.90;;;1.37;;
25127;SDS011;13107;51.304;6.866;2022-09-09T22:17:00;6.85;;;1.60;;
25127;SDS011;13107;51.304;6.866;2022-09-09T22:21:06;5.45;;;1.65;;
25127;SDS011;13107;51.304;6.866;2022-09-09T22:25:10;9.73;;;1.70;;
25127;SDS011;13107;51.304;6.866;2022-09-09T22:29:11;5.05;;;1.52;;
25127;SDS011;13107;51.304;6.866;2022-09-09T22:33:13;4.95;;;1.62;;
25127;SDS011;13107;51.304;6.866;2022-09-09T22:37:15;12.52;;;2.42;;
25127;SDS011;13107;51.304;6.866;2022-09-09T22:41:17;4.53;;;1.58;;
25127;SDS011;13107;51.304;6.866;2022-09-09T22:45:20;7.22;;;1.80;;
25127;SDS011;13107;51.304;6.866;2022-09-09T22:49:22;5.12;;;1.77;;
25127;SDS011;13107;51.304;6.866;2022-09-09T22:53:24;4.62;;;1.70;;
25127;SDS011;13107;51.304;6.866;2022-09-09T22:57:25;8.40;;;1.90;;
25127;SDS011;13107;51.304;6.866;2022-09-09T23:01:27;3.80;;;1.83;;
25127;SDS011;13107;51.304;6.866;2022-09-09T23:05:29;6.07;;;1.50;;
25127;SDS011;13107;51.304;6.866;2022-09-09T23:09:32;2.90;;;1.20;;
25127;SDS011;13107;51.304;6.866;2022-09-09T23:13:34;5.85;;;1.42;;
25127;SDS011;13107;51.304;6.866;2022-09-09T23:17:37;3.45;;;1.30;;
25127;SDS011;13107;51.304;6.866;2022-09-09T23:21:42;4.60;;;1.55;;
25127;SDS011;13107;51.304;6.866;2022-09-09T23:25:45;5.28;;;2.00;;
25127;SDS011;13107;51.304;6.866;2022-09-09T23:29:47;4.72;;;1.50;;
25127;SDS011;13107;51.304;6.866;2022-09-09T23:33:48;5.18;;;1.30;;
25127;SDS011;13107;51.304;6.866;2022-09-09T23:37:50;3.00;;;1.23;;
25127;SDS011;13107;51.304;6.866;2022-09-09T23:41:52;4.60;;;1.12;;
25127;SDS011;13107;51.304;6.866;2022-09-09T23:45:54;4.03;;;1.00;;
25127;SDS011;13107;51.304;6.866;2022-09-09T23:49:57;4.28;;;0.80;;
25127;SDS011;13107;51.304;6.866;2022-09-09T23:53:59;4.93;;;1.10;;
25127;SDS011;13107;51.304;6.866;2022-09-09T23:58:03;5.12;;;1.05;;
